Time;durP1;ratioP1;P1;durP2;ratioP2;P2;SDS_P1;SDS_P2;PMS_P1;PMS_P2;Temp;Humidity;BMP_temperature;BMP_pressure;BME280_temperature;BME280_humidity;BME280_pressure;Samples;Min_cycle;Max_cycle;Signal;HPM_P1;HPM_P2
2022/12/28 00:01:27;;;;;;;2.80;1.80;;;;;;;11.60;44.39;97865.13;4894980;29;20397;-74
2022/12/28 00:03:54;;;;;;;2.80;2.00;;;;;;;11.61;44.83;97881.53;4895520;29;20199;-74
2022/12/28 00:06:23;;;;;;;3.03;2.10;;;;;;;11.64;44.68;97878.84;4894996;29;20206;-73
2022/12/28 00:08:54;;;;;;;2.60;1.63;;;;;;;11.66;43.71;97885.69;4878651;29;20699;-73
2022/12/28 00:11:23;;;;;;;2.53;1.70;;;;;;;11.64;43.95;97881.44;4895088;29;20200;-73
2022/12/28 00:14:01;;;;;;;1.90;1.70;;;;;;;11.70;44.31;97891.63;4894931;29;20228;-74
2022/12/28 00:16:36;;;;;;;2.00;1.80;;;;;;;11.63;43.90;97885.75;4895252;29;20223;-73
2022/12/28 00:19:05;;;;;;;2.10;1.43;;;;;;;11.60;44.09;97878.09;4894806;29;20691;-72
2022/12/28 00:21:33;;;;;;;2.10;1.70;;;;;;;11.61;44.06;97876.34;4895003;29;20270;-73
2022/12/28 00:24:00;;;;;;;1.60;1.50;;;;;;;11.62;43.58;97880.63;4894879;29;20192;-72
2022/12/28 00:26:30;;;;;;;1.90;1.60;;;;;;;11.61;44.00;97882.38;4894689;29;20198;-73
2022/12/28 00:28:57;;;;;;;2.07;1.83;;;;;;;11.64;43.51;97884.88;4895047;29;20209;-73
2022/12/28 00:31:31;;;;;;;1.80;1.53;;;;;;;11.66;43.50;97896.06;4877750;29;20266;-74
2022/12/28 00:33:58;;;;;;;2.57;1.70;;;;;;;11.66;43.68;97890.00;4894771;29;20247;-73
2022/12/28 00:36:26;;;;;;;2.27;1.67;;;;;;;11.67;43.76;97896.91;4894446;29;20206;-73
2022/12/28 00:39:13;;;;;;;1.90;1.43;;;;;;;11.66;43.63;97890.88;4894664;29;20301;-73
2022/12/28 00:41:39;;;;;;;1.97;1.60;;;;;;;11.61;43.75;97897.94;4894250;29;20300;-73
2022/12/28 00:44:07;;;;;;;1.80;1.70;;;;;;;11.62;43.83;97906.56;4877460;29;20202;-73
2022/12/28 00:46:35;;;;;;;1.93;1.43;;;;;;;11.62;43.38;97898.78;4894932;29;20654;-74
2022/12/28 00:49:02;;;;;;;2.10;1.40;;;;;;;11.57;43.64;97901.56;4894290;29;20200;-73
2022/12/28 00:51:29;;;;;;;1.77;1.67;;;;;;;11.63;44.50;97910.84;4894734;29;20191;-74
2022/12/28 00:53:56;;;;;;;1.80;1.60;;;;;;;11.63;43.93;97900.47;4877582;29;20217;-73
2022/12/28 00:56:22;;;;;;;2.20;1.70;;;;;;;11.55;44.34;97895.56;4862118;29;20228;-73
2022/12/28 00:58:54;;;;;;;2.83;1.80;;;;;;;11.52;44.88;97887.88;4893055;29;20621;-73
2022/12/28 01:01:22;;;;;;;3.17;1.70;;;;;;;11.39;45.29;97895.28;4892827;29;20731;-75
2022/12/28 01:03:49;;;;;;;1.90;1.80;;;;;;;11.41;45.48;97903.00;4892635;29;20193;-74
2022/12/28 01:06:18;;;;;;;1.90;1.60;;;;;;;11.38;45.88;97895.31;4893975;29;20204;-75
2022/12/28 01:08:45;;;;;;;2.43;2.23;;;;;;;11.33;45.50;97872.13;4894175;29;20277;-72
2022/12/28 01:11:18;;;;;;;1.63;1.53;;;;;;;11.36;45.80;97871.19;4893863;29;20261;-74
2022/12/28 01:13:46;;;;;;;2.20;1.80;;;;;;;11.30;46.31;97871.41;4892924;29;20719;-74
2022/12/28 01:16:14;;;;;;;2.00;1.87;;;;;;;11.24;46.54;97872.47;4894062;29;20255;-75
2022/12/28 01:18:41;;;;;;;2.50;2.30;;;;;;;11.26;46.41;97886.22;4892750;29;20196;-72
2022/12/28 01:21:14;;;;;;;2.63;2.00;;;;;;;11.23;46.28;97883.72;4894019;29;20230;-73
2022/12/28 01:23:42;;;;;;;2.03;1.70;;;;;;;11.15;46.88;97898.72;4894063;29;20571;-74
2022/12/28 01:26:10;;;;;;;3.30;1.97;;;;;;;11.08;46.93;97870.47;4894186;29;20275;-73
2022/12/28 01:28:37;;;;;;;4.40;1.90;;;;;;;11.08;47.74;97868.72;4893498;29;20760;-73
2022/12/28 01:31:07;;;;;;;2.20;2.00;;;;;;;11.11;47.46;97884.16;4893781;29;20293;-74
2022/12/28 01:33:34;;;;;;;2.27;2.07;;;;;;;11.07;47.76;97877.38;4893785;29;20195;-75
2022/12/28 01:36:15;;;;;;;3.00;2.00;;;;;;;11.00;48.24;97888.88;4877267;29;20657;-73
2022/12/28 01:38:43;;;;;;;2.43;1.93;;;;;;;11.00;47.96;97893.22;4893547;29;20283;-74
2022/12/28 01:41:14;;;;;;;2.97;2.27;;;;;;;10.97;48.52;97898.47;4893346;29;20232;-73
2022/12/28 01:44:09;;;;;;;4.13;2.17;;;;;;;10.94;48.94;97912.38;4876889;29;20183;-74
2022/12/28 01:47:00;;;;;;;2.63;2.23;;;;;;;10.85;50.10;97912.72;4891930;29;20201;-72
2022/12/28 01:49:33;;;;;;;3.80;2.13;;;;;;;10.79;50.88;97919.81;4876644;29;20200;-75
2022/12/28 01:52:11;;;;;;;2.27;2.07;;;;;;;10.77;50.99;97913.84;4892288;29;20200;-74
2022/12/28 01:54:44;;;;;;;2.30;2.10;;;;;;;10.72;51.27;97901.03;4893185;29;20188;-74
2022/12/28 01:57:14;;;;;;;3.97;2.00;;;;;;;10.64;50.77;97897.84;4893293;29;20195;-74
2022/12/28 01:59:45;;;;;;;2.63;2.40;;;;;;;10.65;49.92;97884.03;4861109;29;20192;-74
2022/12/28 02:02:14;;;;;;;2.60;2.20;;;;;;;10.72;50.05;97907.94;4892952;29;20326;-73
2022/12/28 02:04:42;;;;;;;4.07;2.70;;;;;;;10.55;50.76;97882.63;4876413;29;20199;-73
2022/12/28 02:07:14;;;;;;;3.17;2.10;;;;;;;10.49;51.15;97891.41;4893086;29;20200;-74
2022/12/28 02:09:42;;;;;;;3.17;2.17;;;;;;;10.47;51.44;97887.19;4876461;29;20276;-74
2022/12/28 02:12:31;;;;;;;3.73;2.33;;;;;;;10.36;51.28;97884.94;4892782;29;20319;-72
2022/12/28 02:14:58;;;;;;;2.73;2.50;;;;;;;10.13;51.27;97858.06;4890974;29;20234;-74
2022/12/28 02:17:25;;;;;;;4.40;2.37;;;;;;;10.32;51.65;97887.69;4876030;29;20274;-74
2022/12/28 02:19:52;;;;;;;3.67;2.63;;;;;;;10.18;51.76;97872.56;4860215;29;20268;-73
2022/12/28 02:22:54;;;;;;;3.07;2.70;;;;;;;10.36;52.79;97916.03;4893105;29;20232;-74
2022/12/28 02:26:02;;;;;;;3.17;2.67;;;;;;;10.23;53.40;97921.59;4892421;29;20211;-72
2022/12/28 02:28:58;;;;;;;3.13;2.83;;;;;;;10.17;54.00;97914.03;4892453;29;20203;-74
2022/12/28 02:31:32;;;;;;;3.17;2.77;;;;;;;10.05;54.48;97904.88;4893013;29;20703;-71
2022/12/28 02:34:10;;;;;;;4.83;2.80;;;;;;;10.05;54.40;97893.66;4892428;29;20225;-73
2022/12/28 02:36:58;;;;;;;3.13;2.83;;;;;;;10.01;54.93;97920.53;4892390;29;20278;-74
2022/12/28 02:39:38;;;;;;;3.43;3.13;;;;;;;9.90;55.44;97869.09;4892354;29;20660;-73
2022/12/28 02:42:08;;;;;;;3.50;3.20;;;;;;;9.90;55.64;97900.13;4892120;29;20238;-74
2022/12/28 02:50:12;;;;;;;3.53;2.93;;;;;;;9.83;55.56;97902.03;4892012;29;20668;-74
2022/12/28 02:53:11;;;;;;;4.07;3.03;;;;;;;9.88;55.83;97908.81;4890967;29;20227;-73
2022/12/28 02:56:06;;;;;;;4.60;3.30;;;;;;;9.89;55.64;97907.94;4875276;29;20200;-74
2022/12/28 02:58:49;;;;;;;4.40;3.13;;;;;;;9.88;55.47;97921.75;4892022;29;20192;-73
2022/12/28 03:01:49;;;;;;;4.00;3.20;;;;;;;9.88;56.07;97911.41;4875400;29;20233;-73
2022/12/28 03:04:25;;;;;;;4.70;2.93;;;;;;;9.94;55.00;97912.09;4892032;29;20191;-74
2022/12/28 03:10:18;;;;;;;4.87;3.37;;;;;;;9.96;54.34;97893.91;4891990;29;20198;-74
2022/12/28 03:12:48;;;;;;;4.07;3.37;;;;;;;9.98;54.35;97918.88;4891703;29;20268;-73
2022/12/28 03:15:30;;;;;;;4.23;3.07;;;;;;;9.99;54.13;97919.72;4891983;29;20286;-73
2022/12/28 03:32:08;;;;;;;4.23;3.33;;;;;;;9.83;54.07;97942.59;4875193;29;20195;-74
2022/12/28 03:34:36;;;;;;;4.00;3.40;;;;;;;9.83;53.70;97948.59;4859592;29;20258;-73
2022/12/28 03:37:24;;;;;;;4.63;3.20;;;;;;;9.90;53.03;97926.00;4874964;29;20212;-73
2022/12/28 03:40:28;;;;;;;3.70;2.70;;;;;;;9.92;52.52;97952.69;4874866;29;20199;-74
2022/12/28 03:45:57;;;;;;;6.90;3.40;;;;;;;10.00;49.41;97931.75;4874792;29;20701;-73
2022/12/28 03:48:24;;;;;;;3.83;2.97;;;;;;;9.97;49.84;97924.09;4890287;29;20191;-73
2022/12/28 03:50:53;;;;;;;4.57;2.77;;;;;;;10.10;49.21;97951.31;4891380;29;20251;-73
2022/12/28 03:53:25;;;;;;;4.57;2.80;;;;;;;10.04;48.98;97948.88;4875093;29;20218;-73
2022/12/28 03:56:26;;;;;;;3.57;2.60;;;;;;;10.07;49.21;97966.91;4874954;29;20187;-72
2022/12/28 03:58:56;;;;;;;3.67;2.67;;;;;;;10.00;49.73;97973.16;4857612;29;20214;-74
2022/12/28 04:01:30;;;;;;;3.33;2.70;;;;;;;9.88;50.22;97957.97;4874932;29;20710;-73
2022/12/28 04:03:57;;;;;;;3.47;2.80;;;;;;;9.87;50.25;97959.72;4874794;29;20198;-74
2022/12/28 04:06:25;;;;;;;3.90;2.77;;;;;;;9.88;50.22;97963.16;4890463;29;20193;-73
2022/12/28 04:08:53;;;;;;;2.90;2.37;;;;;;;9.85;50.29;97959.75;4890433;29;20276;-73
2022/12/28 04:11:21;;;;;;;3.80;3.07;;;;;;;9.79;50.76;97941.81;4890502;29;20196;-73
2022/12/28 04:13:52;;;;;;;5.20;3.13;;;;;;;9.79;51.43;97965.09;4890039;29;20227;-74
2022/12/28 04:16:20;;;;;;;3.67;3.23;;;;;;;9.75;51.72;97960.91;4890098;29;20187;-73
2022/12/28 04:18:47;;;;;;;4.20;3.20;;;;;;;9.69;51.51;97952.47;4889872;29;20206;-73
2022/12/28 04:21:14;;;;;;;3.43;2.80;;;;;;;9.72;51.39;97965.34;4891174;29;20231;-74
2022/12/28 04:23:43;;;;;;;5.40;2.70;;;;;;;9.65;51.86;97984.47;4890407;29;20248;-74
2022/12/28 04:26:16;;;;;;;4.00;3.10;;;;;;;9.58;52.07;97970.03;4890356;29;20279;-73
2022/12/28 04:28:45;;;;;;;3.80;3.17;;;;;;;9.60;52.08;97979.44;4874482;29;20279;-73
2022/12/28 04:31:21;;;;;;;3.43;2.93;;;;;;;9.53;52.37;97977.91;4891141;29;20274;-73
2022/12/28 04:33:56;;;;;;;3.73;3.20;;;;;;;9.33;52.02;97941.41;4890211;29;20197;-74
2022/12/28 04:36:25;;;;;;;4.43;2.93;;;;;;;9.47;52.02;97977.22;4874332;29;20200;-73
2022/12/28 04:38:53;;;;;;;5.33;3.00;;;;;;;9.35;52.11;97949.97;4876575;29;20247;-73
2022/12/28 04:41:20;;;;;;;3.97;3.10;;;;;;;9.46;51.33;97983.28;4894767;29;20703;-74
2022/12/28 04:43:47;;;;;;;3.83;3.40;;;;;;;9.49;51.60;97976.28;4893284;29;20665;-73
2022/12/28 04:46:15;;;;;;;3.60;3.00;;;;;;;9.56;51.29;97993.31;4894432;29;20195;-74
2022/12/28 04:48:42;;;;;;;3.80;3.23;;;;;;;9.52;50.24;97986.53;4894479;29;20191;-75
2022/12/28 04:51:16;;;;;;;3.60;3.30;;;;;;;9.62;50.62;97985.41;4894457;29;20264;-74
2022/12/28 04:53:43;;;;;;;4.30;3.30;;;;;;;9.53;50.79;97988.25;4894411;29;20679;-74
2022/12/28 04:56:11;;;;;;;3.87;2.90;;;;;;;9.59;50.94;97974.31;4894343;29;20191;-75
2022/12/28 04:58:39;;;;;;;3.50;2.77;;;;;;;9.55;49.66;97959.75;4893124;29;20195;-74
2022/12/28 05:01:11;;;;;;;3.13;2.80;;;;;;;9.54;49.43;97956.31;4894057;29;20191;-73
2022/12/28 05:03:41;;;;;;;4.10;2.90;;;;;;;9.63;47.84;97971.59;4893906;29;20226;-73
2022/12/28 05:06:12;;;;;;;2.93;2.43;;;;;;;9.66;46.69;97962.91;4894104;29;20669;-72
2022/12/28 05:08:39;;;;;;;2.50;2.20;;;;;;;9.73;45.81;97970.44;4893778;29;20260;-73
2022/12/28 05:11:11;;;;;;;2.33;2.13;;;;;;;9.78;44.67;97976.38;4893906;29;20191;-74
2022/12/28 05:13:38;;;;;;;2.47;2.10;;;;;;;9.78;44.33;97978.94;4876795;29;20671;-73
2022/12/28 05:16:11;;;;;;;1.97;1.87;;;;;;;9.83;43.17;97977.06;4877169;29;20211;-73
2022/12/28 05:18:38;;;;;;;3.47;2.57;;;;;;;9.90;42.60;97977.75;4876452;29;20227;-73
2022/12/28 05:21:24;;;;;;;2.50;2.20;;;;;;;9.97;41.93;97979.28;4892815;29;20236;-73
2022/12/28 05:23:52;;;;;;;2.30;2.10;;;;;;;9.93;41.68;97976.81;4887903;29;20633;-73
2022/12/28 05:26:23;;;;;;;2.20;2.00;;;;;;;9.96;41.01;97962.06;4893270;29;20206;-72
2022/12/28 05:28:50;;;;;;;3.80;2.37;;;;;;;9.95;40.47;97960.38;4893671;29;20195;-74
2022/12/28 05:31:19;;;;;;;2.90;1.97;;;;;;;9.99;40.35;97966.28;4893574;29;20725;-72
2022/12/28 05:33:47;;;;;;;3.70;2.47;;;;;;;9.93;40.33;97963.88;4893398;29;20191;-73
2022/12/28 05:36:22;;;;;;;3.13;2.40;;;;;;;10.04;39.39;97974.75;4893171;29;20304;-73
2022/12/28 05:38:49;;;;;;;2.03;1.80;;;;;;;10.07;39.65;97977.28;4892817;29;20206;-73
2022/12/28 05:41:22;;;;;;;2.37;2.10;;;;;;;10.04;39.60;97975.63;4875815;29;20196;-73
2022/12/28 05:43:50;;;;;;;1.70;1.60;;;;;;;10.07;39.44;97953.97;4890017;29;20226;-73
2022/12/28 05:46:19;;;;;;;3.47;2.60;;;;;;;10.18;39.28;97973.50;4892898;29;20196;-74
2022/12/28 05:48:47;;;;;;;5.13;3.50;;;;;;;10.12;39.58;97965.91;4892289;29;20295;-74
2022/12/28 05:51:17;;;;;;;6.80;4.30;;;;;;;10.18;40.25;97991.63;4881601;29;20744;-74
2022/12/28 05:53:44;;;;;;;6.00;4.60;;;;;;;10.18;39.71;97994.22;4891368;29;20203;-74
2022/12/28 05:56:17;;;;;;;9.87;4.90;;;;;;;10.26;39.62;97983.66;4891530;29;20194;-74
2022/12/28 05:58:45;;;;;;;6.47;4.17;;;;;;;10.24;39.96;97998.38;4892637;29;20295;-74
2022/12/28 06:01:18;;;;;;;6.30;3.87;;;;;;;10.18;39.56;98008.91;4892413;29;20244;-74
2022/12/28 06:03:47;;;;;;;9.53;5.13;;;;;;;10.00;43.05;97989.53;4893056;29;20200;-73
2022/12/28 06:06:17;;;;;;;10.63;6.57;;;;;;;9.85;44.76;98002.88;4892381;29;20202;-73
2022/12/28 06:08:46;;;;;;;12.07;7.10;;;;;;;9.79;45.36;98001.31;4892257;29;20203;-73
2022/12/28 06:11:17;;;;;;;12.43;7.33;;;;;;;9.80;45.13;98003.03;4892221;29;20206;-72
2022/12/28 06:13:45;;;;;;;17.37;8.70;;;;;;;9.80;45.56;98003.03;4892289;29;20235;-73
2022/12/28 06:20:18;;;;;;;12.53;7.67;;;;;;;9.49;46.93;97980.59;4883093;29;20772;-74
2022/12/28 06:22:45;;;;;;;15.33;9.83;;;;;;;9.72;48.13;98025.69;4891881;29;20234;-75
2022/12/28 06:25:12;;;;;;;15.23;9.90;;;;;;;9.74;49.38;98034.25;4892327;29;20222;-75
2022/12/28 06:27:39;;;;;;;11.23;8.53;;;;;;;9.57;50.49;98036.41;4891739;29;20200;-74
2022/12/28 06:30:08;;;;;;;9.50;6.57;;;;;;;9.43;51.24;98029.91;4890738;29;20689;-74
2022/12/28 06:32:35;;;;;;;7.13;5.63;;;;;;;9.53;51.84;98024.44;4891549;29;20192;-74
2022/12/28 06:35:02;;;;;;;7.70;6.07;;;;;;;9.68;51.92;98039.59;4891682;29;20207;-74
2022/12/28 06:37:29;;;;;;;10.10;7.63;;;;;;;9.58;52.27;98042.44;4889158;29;20222;-74
2022/12/28 06:39:56;;;;;;;9.43;6.60;;;;;;;9.63;52.01;98038.84;4891624;29;20199;-73
2022/12/28 06:42:23;;;;;;;13.23;7.13;;;;;;;9.53;52.72;98054.63;4891728;29;20215;-74
2022/12/28 06:44:50;;;;;;;8.47;6.17;;;;;;;9.30;52.69;98037.09;4891864;29;20227;-75
2022/12/28 06:47:17;;;;;;;11.60;5.97;;;;;;;9.34;52.61;98059.41;4875670;29;20195;-74
2022/12/28 06:49:44;;;;;;;10.43;5.73;;;;;;;9.30;52.95;98059.50;4891846;29;20256;-74
2022/12/28 06:52:11;;;;;;;8.07;5.57;;;;;;;9.40;52.15;98058.41;4891887;29;20199;-73
2022/12/28 06:54:38;;;;;;;10.17;6.70;;;;;;;9.56;52.42;98060.56;4891669;29;20311;-74
2022/12/28 06:57:05;;;;;;;9.23;5.73;;;;;;;9.69;51.71;98046.44;4890438;29;20258;-74
2022/12/28 06:59:32;;;;;;;12.20;7.83;;;;;;;9.62;52.66;98072.50;4891310;29;20237;-75
2022/12/28 07:01:58;;;;;;;14.03;8.47;;;;;;;9.78;52.73;98071.22;4891007;29;20251;-73
2022/12/28 07:04:26;;;;;;;16.00;9.57;;;;;;;9.75;52.54;98082.47;4890646;29;20295;-72
2022/12/28 07:06:53;;;;;;;17.77;10.40;;;;;;;9.60;52.89;98063.94;4874588;29;20214;-74
2022/12/28 07:09:20;;;;;;;22.83;13.70;;;;;;;9.59;52.80;98065.66;4892596;29;20568;-74
2022/12/28 07:11:49;;;;;;;18.67;12.77;;;;;;;9.25;54.24;98085.50;4891392;29;20614;-73
2022/12/28 07:14:16;;;;;;;18.83;11.43;;;;;;;9.14;54.05;98082.31;4891074;29;20653;-73
2022/12/28 07:16:43;;;;;;;27.50;19.90;;;;;;;9.16;54.58;98087.44;4891573;29;20222;-74
2022/12/28 07:19:10;;;;;;;16.30;11.53;;;;;;;9.24;54.42;98073.44;4891492;29;20699;-74
2022/12/28 07:21:38;;;;;;;18.00;12.60;;;;;;;9.29;54.91;98094.88;4891672;29;20218;-75
2022/12/28 07:24:06;;;;;;;16.60;10.73;;;;;;;9.23;54.44;98082.09;4891359;29;20592;-75
2022/12/28 07:26:36;;;;;;;15.60;11.93;;;;;;;9.13;55.08;98085.75;4891573;29;20200;-75
2022/12/28 07:29:04;;;;;;;18.17;11.87;;;;;;;9.17;55.46;98099.47;4890333;29;20248;-74
2022/12/28 07:31:39;;;;;;;14.63;10.43;;;;;;;9.34;56.00;98105.94;4888070;29;20206;-77
2022/12/28 07:34:14;;;;;;;17.83;11.50;;;;;;;9.51;55.38;98098.63;4872490;29;20690;-74
2022/12/28 07:36:41;;;;;;;25.00;14.73;;;;;;;9.59;55.27;98099.28;4891318;29;20198;-75
2022/12/28 07:39:09;;;;;;;22.53;14.13;;;;;;;9.41;55.63;98102.31;4891788;29;20660;-74
2022/12/28 07:41:36;;;;;;;25.70;16.13;;;;;;;9.49;55.26;98110.75;4858893;29;20204;-74
2022/12/28 07:44:05;;;;;;;20.83;15.67;;;;;;;9.49;55.44;98110.75;4890235;29;20701;-74
2022/12/28 07:46:34;;;;;;;20.70;12.90;;;;;;;9.61;53.94;98110.44;4873979;29;20207;-74
2022/12/28 07:49:01;;;;;;;17.90;12.73;;;;;;;9.53;53.59;98120.13;4891363;29;20191;-74
2022/12/28 07:51:31;;;;;;;12.93;10.47;;;;;;;9.63;52.18;98108.66;4874064;29;20195;-74
2022/12/28 07:53:58;;;;;;;11.87;7.30;;;;;;;9.72;50.60;98123.97;4891256;29;20683;-75
2022/12/28 07:56:27;;;;;;;10.87;7.00;;;;;;;9.75;49.26;98121.28;4888988;29;20199;-74
2022/12/28 07:58:57;;;;;;;11.67;7.07;;;;;;;9.62;48.73;98114.72;4873190;29;20361;-75
2022/12/28 08:01:27;;;;;;;10.43;6.83;;;;;;;9.74;47.96;98135.13;4891768;29;20208;-75
2022/12/28 08:03:56;;;;;;;10.63;6.53;;;;;;;9.69;48.07;98143.84;4898355;29;20232;-75
2022/12/28 08:06:24;;;;;;;11.40;7.50;;;;;;;9.64;48.16;98146.56;4891579;29;20199;-75
2022/12/28 08:08:54;;;;;;;7.63;5.70;;;;;;;9.61;48.27;98146.63;4891045;29;20230;-75
2022/12/28 08:11:24;;;;;;;9.83;6.67;;;;;;;9.67;49.26;98154.25;4872381;29;20212;-75
2022/12/28 08:13:53;;;;;;;12.53;7.67;;;;;;;9.61;49.72;98150.97;4875068;29;20231;-75
2022/12/28 08:16:23;;;;;;;9.97;6.20;;;;;;;9.29;50.52;98138.81;4880392;29;20228;-75
2022/12/28 08:18:50;;;;;;;10.27;6.73;;;;;;;9.36;51.33;98149.81;4877644;29;20195;-75
2022/12/28 08:21:21;;;;;;;9.37;6.77;;;;;;;9.30;52.11;98148.25;4877857;29;20263;-74
2022/12/28 08:23:49;;;;;;;14.57;7.90;;;;;;;9.53;52.15;98158.91;4893997;29;20223;-74
2022/12/28 08:26:19;;;;;;;13.67;8.63;;;;;;;9.58;52.29;98169.16;4877121;29;20598;-75
2022/12/28 08:28:48;;;;;;;14.50;8.33;;;;;;;9.72;52.51;98172.25;4894039;29;20634;-75
2022/12/28 08:31:32;;;;;;;12.77;8.80;;;;;;;9.96;52.36;98174.22;4892438;29;20239;-76
2022/12/28 08:34:01;;;;;;;15.63;10.43;;;;;;;10.13;52.89;98176.41;4892727;29;20203;-73
2022/12/28 08:36:29;;;;;;;15.33;11.50;;;;;;;10.33;52.11;98158.59;4894847;29;20267;-72
2022/12/28 08:38:56;;;;;;;18.27;9.57;;;;;;;10.26;52.37;98159.69;4894582;29;20259;-73
2022/12/28 08:41:25;;;;;;;15.07;9.70;;;;;;;10.10;53.47;98168.72;4892788;29;20196;-72
2022/12/28 08:43:53;;;;;;;12.50;7.43;;;;;;;10.22;53.67;98181.38;4894598;29;20225;-74
2022/12/28 08:46:23;;;;;;;9.50;6.77;;;;;;;10.37;53.60;98179.22;4892987;29;20199;-73
2022/12/28 08:48:51;;;;;;;11.40;6.63;;;;;;;10.57;53.02;98178.69;4893561;29;20234;-73
2022/12/28 08:51:40;;;;;;;10.63;5.80;;;;;;;10.51;53.11;98186.59;4876359;29;20213;-74
2022/12/28 08:54:09;;;;;;;8.80;6.60;;;;;;;10.56;53.13;98182.16;4877169;29;20252;-74
2022/12/28 08:56:38;;;;;;;10.97;6.57;;;;;;;10.51;53.47;98176.22;4892783;29;20201;-74
2022/12/28 08:59:06;;;;;;;5.83;4.03;;;;;;;10.50;53.12;98175.41;4874493;29;20207;-73
2022/12/28 09:01:38;;;;;;;6.10;4.27;;;;;;;10.39;53.87;98166.22;4892097;29;20263;-74
2022/12/28 09:04:16;;;;;;;6.23;4.97;;;;;;;10.62;53.58;98167.28;4893401;29;20241;-75
2022/12/28 09:06:43;;;;;;;6.30;4.50;;;;;;;10.56;52.97;98170.06;4892502;29;20265;-74
2022/12/28 09:09:13;;;;;;;7.83;4.63;;;;;;;10.67;53.00;98167.16;4886351;29;20681;-74
2022/12/28 09:11:41;;;;;;;9.17;5.03;;;;;;;10.76;52.97;98159.13;4887282;29;20201;-71
2022/12/28 09:14:10;;;;;;;12.53;7.53;;;;;;;10.88;52.62;98173.50;4889880;29;20300;-74
2022/12/28 09:16:46;;;;;;;10.93;5.77;;;;;;;10.77;52.92;98175.53;4889365;29;20200;-72
2022/12/28 09:19:14;;;;;;;6.60;5.07;;;;;;;10.88;52.48;98176.91;4892531;29;20278;-72
2022/12/28 09:21:41;;;;;;;15.30;7.03;;;;;;;10.83;49.69;98176.19;4888339;29;20204;-72
2022/12/28 09:24:08;;;;;;;9.47;6.30;;;;;;;10.47;49.29;98143.53;4892506;29;20230;-72
2022/12/28 09:26:37;;;;;;;8.50;4.83;;;;;;;10.73;48.94;98169.59;4860480;29;20226;-72
2022/12/28 09:29:07;;;;;;;8.40;5.33;;;;;;;10.57;48.32;98157.97;4893210;29;20322;-72
2022/12/28 09:31:36;;;;;;;5.33;4.00;;;;;;;10.55;47.93;98162.34;4876047;29;20208;-72
2022/12/28 09:34:05;;;;;;;7.20;4.60;;;;;;;10.55;47.49;98160.56;4892871;29;20201;-74
2022/12/28 09:36:53;;;;;;;7.87;5.00;;;;;;;10.61;47.23;98162.16;4893121;29;20203;-73
2022/12/28 09:39:23;;;;;;;6.87;4.73;;;;;;;10.56;48.55;98164.03;4875467;29;20274;-73
2022/12/28 09:41:50;;;;;;;7.57;4.27;;;;;;;10.57;48.94;98152.78;4892441;29;20187;-72
2022/12/28 09:44:45;;;;;;;7.40;4.70;;;;;;;10.64;49.24;98162.06;4892426;29;20338;-73
2022/12/28 09:47:21;;;;;;;8.17;5.00;;;;;;;10.62;50.05;98166.44;4891686;29;20188;-73
2022/12/28 09:50:27;;;;;;;6.63;5.10;;;;;;;10.51;50.62;98168.47;4892627;29;20280;-71
2022/12/28 09:52:56;;;;;;;7.37;5.00;;;;;;;10.42;51.36;98173.91;4875426;29;20199;-69
2022/12/28 09:55:24;;;;;;;7.17;4.03;;;;;;;10.34;51.48;98171.53;4891920;29;20275;-71
2022/12/28 09:57:55;;;;;;;6.60;5.77;;;;;;;10.50;51.73;98159.88;4874959;29;20243;-73
2022/12/28 10:00:27;;;;;;;7.07;4.50;;;;;;;10.49;52.41;98154.72;4873803;29;20530;-75
2022/12/28 10:02:59;;;;;;;8.30;5.40;;;;;;;10.66;52.44;98155.09;4891862;29;20228;-71
2022/12/28 10:05:26;;;;;;;5.90;4.07;;;;;;;10.69;52.31;98151.56;4874984;29;20198;-72
2022/12/28 10:08:03;;;;;;;6.90;4.20;;;;;;;10.57;52.96;98148.44;4892314;29;20208;-72
2022/12/28 10:10:30;;;;;;;7.13;4.53;;;;;;;10.65;53.23;98148.22;4891725;29;20211;-73
2022/12/28 10:13:13;;;;;;;7.97;4.10;;;;;;;10.51;54.24;98124.44;4891041;29;20237;-74
2022/12/28 10:16:06;;;;;;;6.13;4.10;;;;;;;10.68;54.31;98142.09;4892212;29;20199;-75
2022/12/28 10:18:36;;;;;;;6.33;4.20;;;;;;;10.65;54.81;98141.28;4890531;29;20214;-76
2022/12/28 10:21:05;;;;;;;6.87;4.27;;;;;;;10.39;55.69;98142.91;4890576;29;20243;-75
2022/12/28 10:23:34;;;;;;;5.40;3.57;;;;;;;10.22;56.05;98140.78;4891811;29;20275;-74
2022/12/28 10:26:18;;;;;;;7.57;4.00;;;;;;;10.24;56.55;98153.69;4890550;29;20972;-75
2022/12/28 10:28:56;;;;;;;7.33;4.00;;;;;;;10.27;56.97;98156.19;4892335;29;20196;-75
2022/12/28 10:31:33;;;;;;;7.07;5.10;;;;;;;10.14;57.36;98144.47;4892415;29;20189;-75
2022/12/28 10:34:01;;;;;;;9.03;4.87;;;;;;;10.19;57.75;98145.19;4875449;29;20727;-75
2022/12/28 10:36:33;;;;;;;8.57;4.90;;;;;;;10.29;57.80;98154.41;4892239;29;20659;-74
2022/12/28 10:39:01;;;;;;;9.43;4.50;;;;;;;10.16;57.96;98145.28;4892791;29;20774;-75
2022/12/28 10:41:46;;;;;;;7.90;4.40;;;;;;;10.04;58.74;98142.97;4875600;29;20223;-73
2022/12/28 10:44:32;;;;;;;7.30;5.80;;;;;;;10.09;58.20;98148.88;4891930;29;20228;-74
2022/12/28 10:47:41;;;;;;;5.77;4.43;;;;;;;10.05;59.52;98144.69;4891887;29;20201;-74
2022/12/28 10:50:36;;;;;;;9.23;5.10;;;;;;;10.01;60.20;98145.66;4862747;29;20287;-73
2022/12/28 10:53:04;;;;;;;8.97;5.50;;;;;;;9.98;60.34;98146.56;4891706;29;20589;-74
2022/12/28 10:55:33;;;;;;;7.83;5.77;;;;;;;9.81;60.10;98121.13;4890075;29;20237;-72
2022/12/28 10:58:22;;;;;;;8.63;5.57;;;;;;;10.02;60.82;98147.31;4874957;29;20192;-72
2022/12/28 11:01:11;;;;;;;6.90;4.73;;;;;;;10.06;60.39;98148.94;4871417;29;20301;-73
2022/12/28 11:03:55;;;;;;;7.23;4.80;;;;;;;9.93;60.66;98138.09;4871183;29;20230;-73
2022/12/28 11:06:28;;;;;;;6.97;4.73;;;;;;;9.96;60.98;98142.31;4877200;29;20222;-74
2022/12/28 11:09:23;;;;;;;10.03;5.40;;;;;;;9.77;61.50;98134.16;4891394;29;20200;-73
2022/12/28 11:11:53;;;;;;;7.67;5.63;;;;;;;9.68;62.10;98142.19;4872027;29;20216;-73
2022/12/28 11:14:22;;;;;;;8.20;5.53;;;;;;;9.69;62.50;98138.69;4885791;29;20236;-73
2022/12/28 11:16:52;;;;;;;8.53;6.20;;;;;;;9.60;62.79;98147.50;4870753;29;20196;-74
2022/12/28 11:19:20;;;;;;;11.50;6.40;;;;;;;9.76;62.80;98140.25;4871139;29;20196;-74
2022/12/28 11:21:48;;;;;;;8.63;5.40;;;;;;;9.54;62.68;98113.22;4871960;29;20258;-73
2022/12/28 11:24:16;;;;;;;9.17;5.73;;;;;;;9.73;63.64;98135.13;4872509;29;20220;-74
2022/12/28 11:26:48;;;;;;;10.30;6.50;;;;;;;9.78;63.51;98128.13;4872509;29;20189;-73
2022/12/28 11:29:17;;;;;;;7.87;5.60;;;;;;;9.57;64.12;98123.47;4872703;29;20205;-73
2022/12/28 11:31:58;;;;;;;7.90;5.77;;;;;;;9.61;64.02;98109.56;4871190;29;20300;-73
2022/12/28 11:34:28;;;;;;;6.40;5.30;;;;;;;9.66;63.84;98134.47;4872547;29;20598;-74
2022/12/28 11:36:55;;;;;;;9.30;5.57;;;;;;;9.48;64.95;98134.88;4872900;29;20654;-73
2022/12/28 11:39:25;;;;;;;8.67;6.13;;;;;;;9.49;65.20;98136.59;4871304;29;20208;-73
2022/12/28 11:42:02;;;;;;;8.87;6.27;;;;;;;9.38;65.53;98124.78;4872412;29;20200;-73
2022/12/28 11:44:50;;;;;;;10.70;6.70;;;;;;;9.24;66.06;98139.78;4872254;29;20216;-72
2022/12/28 11:47:31;;;;;;;9.30;6.43;;;;;;;9.41;66.02;98142.84;4872215;29;20202;-74
2022/12/28 11:50:33;;;;;;;10.23;6.13;;;;;;;9.38;65.89;98137.72;4876003;29;20268;-74
2022/12/28 11:53:02;;;;;;;12.47;7.47;;;;;;;9.54;65.52;98144.25;4876197;29;20196;-73
2022/12/28 11:55:46;;;;;;;9.27;6.20;;;;;;;9.62;65.42;98148.31;4875966;29;20279;-75
2022/12/28 11:58:25;;;;;;;7.97;6.07;;;;;;;9.31;65.84;98143.94;4875794;29;20290;-74
2022/12/28 12:00:52;;;;;;;11.83;7.07;;;;;;;9.30;66.17;98144.81;4875321;29;20287;-73
2022/12/28 12:03:19;;;;;;;8.87;7.10;;;;;;;9.28;66.81;98152.59;4874581;29;20260;-72
2022/12/28 12:05:49;;;;;;;9.60;6.63;;;;;;;9.35;67.01;98141.25;4873750;29;20200;-72
2022/12/28 12:08:15;;;;;;;11.60;7.10;;;;;;;9.22;67.65;98139.81;4875255;29;20284;-71
2022/12/28 12:10:44;;;;;;;8.90;6.93;;;;;;;9.30;66.73;98132.75;4875129;29;20217;-72
2022/12/28 12:13:26;;;;;;;12.20;7.17;;;;;;;9.42;66.78;98139.34;4883422;29;20234;-74
2022/12/28 12:16:02;;;;;;;11.60;8.43;;;;;;;9.49;66.52;98136.59;4893494;29;20191;-73
2022/12/28 12:18:39;;;;;;;14.00;8.40;;;;;;;9.57;66.66;98145.03;4891650;29;20208;-74
2022/12/28 12:21:07;;;;;;;16.67;10.13;;;;;;;9.61;66.87;98146.63;4876105;29;20211;-74
2022/12/28 12:23:49;;;;;;;8.90;6.57;;;;;;;9.60;66.90;98144.09;4892535;29;20229;-74
2022/12/28 12:26:19;;;;;;;10.00;7.40;;;;;;;9.32;67.89;98149.06;4893034;29;20191;-74
2022/12/28 12:28:50;;;;;;;12.07;8.03;;;;;;;9.32;68.80;98148.19;4892913;29;20659;-75